createdAt,value
2023-05-08T00:01:02.081Z,13.60
2023-05-08T00:03:29.210Z,13.50
2023-05-08T00:05:56.084Z,13.40
2023-05-08T00:08:23.281Z,13.40
2023-05-08T00:10:50.142Z,13.50
2023-05-08T00:13:17.227Z,13.50
2023-05-08T00:15:44.176Z,13.40
2023-05-08T00:18:11.914Z,13.40
2023-05-08T00:20:38.854Z,13.40
2023-05-08T00:23:05.910Z,13.40
2023-05-08T00:25:32.815Z,13.30
2023-05-08T00:28:00.281Z,13.30
2023-05-08T00:30:27.623Z,13.30
2023-05-08T00:32:54.921Z,13.30
2023-05-08T00:35:22.112Z,13.30
2023-05-08T00:37:49.123Z,13.30
2023-05-08T00:40:16.182Z,13.30
2023-05-08T00:42:43.317Z,13.30
2023-05-08T00:45:10.730Z,13.30
2023-05-08T00:47:38.548Z,13.20
2023-05-08T00:50:06.069Z,13.30
2023-05-08T00:52:33.325Z,13.20
2023-05-08T00:55:02.240Z,13.20
2023-05-08T00:57:32.455Z,13.20
2023-05-08T01:00:01.732Z,13.30
2023-05-08T01:02:31.650Z,13.30
2023-05-08T01:04:58.854Z,13.20
2023-05-08T01:07:26.143Z,13.20
2023-05-08T01:09:53.527Z,13.20
2023-05-08T01:12:57.842Z,13.20
2023-05-08T01:15:32.931Z,13.30
2023-05-08T01:18:11.902Z,13.20
2023-05-08T01:20:55.709Z,13.20
2023-05-08T01:23:41.680Z,13.20
2023-05-08T01:26:30.465Z,13.20
2023-05-08T01:29:10.728Z,13.20
2023-05-08T01:32:06.855Z,13.20
2023-05-08T01:34:37.019Z,13.10
2023-05-08T01:37:17.383Z,13.00
2023-05-08T01:40:11.780Z,12.90
2023-05-08T01:42:58.116Z,12.90
2023-05-08T01:45:39.549Z,12.80
2023-05-08T01:48:35.563Z,12.70
2023-05-08T01:51:14.226Z,12.70
2023-05-08T01:53:49.617Z,12.70
2023-05-08T01:56:22.262Z,12.60
2023-05-08T01:58:53.023Z,12.60
2023-05-08T02:01:23.642Z,12.50
2023-05-08T02:03:51.991Z,12.50
2023-05-08T02:06:22.020Z,12.50
2023-05-08T02:08:50.466Z,12.40
2023-05-08T02:11:19.752Z,12.40
2023-05-08T02:13:48.974Z,12.40
2023-05-08T02:16:17.157Z,12.30
2023-05-08T02:18:50.560Z,12.30
2023-05-08T02:21:18.761Z,12.10
2023-05-08T02:23:46.813Z,12.10
2023-05-08T02:26:16.018Z,12.10
2023-05-08T02:28:43.428Z,12.10
2023-05-08T02:31:12.877Z,12.00
2023-05-08T02:33:44.083Z,12.00
2023-05-08T02:36:15.793Z,12.00
2023-05-08T02:38:44.817Z,11.90
2023-05-08T02:41:14.137Z,11.90
2023-05-08T02:43:41.900Z,11.80
2023-05-08T02:46:40.235Z,11.80
2023-05-08T02:49:23.246Z,11.80
2023-05-08T02:52:13.876Z,11.70
2023-05-08T02:54:55.741Z,11.70
2023-05-08T02:57:30.130Z,11.70
2023-05-08T03:00:05.283Z,11.70
2023-05-08T03:02:40.577Z,11.70
2023-05-08T03:05:11.826Z,11.70
2023-05-08T03:07:41.279Z,11.70
2023-05-08T03:10:16.762Z,11.60
2023-05-08T03:12:49.137Z,11.70
2023-05-08T03:15:46.253Z,11.70
2023-05-08T03:18:19.980Z,11.70
2023-05-08T03:20:51.228Z,11.70
2023-05-08T03:23:21.733Z,11.70
2023-05-08T03:25:48.929Z,11.70
2023-05-08T03:28:17.811Z,11.70
2023-05-08T03:30:45.303Z,11.70
2023-05-08T03:33:15.251Z,11.80
2023-05-08T03:35:42.913Z,11.70
2023-05-08T03:38:10.600Z,11.70
2023-05-08T03:40:42.729Z,11.80
2023-05-08T03:43:11.412Z,11.90
2023-05-08T03:45:40.694Z,11.90
2023-05-08T03:48:09.119Z,11.90
2023-05-08T03:50:39.877Z,11.90
2023-05-08T03:53:09.399Z,12.00
2023-05-08T03:55:36.809Z,12.00
2023-05-08T03:58:21.599Z,11.90
2023-05-08T04:01:39.991Z,11.90
2023-05-08T04:04:17.417Z,11.90
2023-05-08T04:06:51.467Z,11.80
2023-05-08T04:09:37.336Z,11.80
2023-05-08T04:12:18.699Z,11.80
2023-05-08T04:15:00.612Z,11.70
2023-05-08T04:17:40.670Z,11.80
2023-05-08T04:20:12.421Z,11.80
2023-05-08T04:22:41.150Z,11.70
2023-05-08T04:25:10.535Z,11.80
2023-05-08T04:27:38.671Z,11.80
2023-05-08T04:30:08.418Z,11.70
2023-05-08T04:32:38.306Z,11.70
2023-05-08T04:35:07.487Z,11.70
2023-05-08T04:37:35.152Z,11.70
2023-05-08T04:40:05.042Z,11.70
2023-05-08T04:42:36.491Z,11.70
2023-05-08T04:45:04.148Z,11.70
2023-05-08T04:47:34.080Z,11.70
2023-05-08T04:50:11.337Z,11.70
2023-05-08T04:52:38.193Z,11.60
2023-05-08T04:55:06.864Z,11.60
2023-05-08T04:57:38.783Z,11.60
2023-05-08T05:00:06.608Z,11.50
2023-05-08T05:02:37.756Z,11.50
2023-05-08T05:05:05.835Z,11.60
2023-05-08T05:07:32.602Z,11.60
2023-05-08T05:10:00.624Z,11.70
2023-05-08T05:12:28.109Z,11.70
2023-05-08T05:14:55.245Z,11.80
2023-05-08T05:17:22.996Z,11.90
2023-05-08T05:19:53.372Z,12.00
2023-05-08T05:22:20.919Z,12.10
2023-05-08T05:24:47.750Z,12.20
2023-05-08T05:27:19.896Z,12.30
2023-05-08T05:29:48.448Z,12.30
2023-05-08T05:32:15.492Z,12.40
2023-05-08T05:34:42.937Z,12.50
2023-05-08T05:37:10.243Z,12.50
2023-05-08T05:39:38.038Z,12.60
2023-05-08T05:42:05.715Z,12.60
2023-05-08T05:44:32.777Z,12.70
2023-05-08T05:47:00.366Z,12.80
2023-05-08T05:49:27.391Z,12.90
2023-05-08T05:51:54.343Z,13.00
2023-05-08T05:54:21.294Z,13.10
2023-05-08T05:56:48.550Z,13.10
2023-05-08T05:59:15.609Z,13.20
2023-05-08T06:01:42.535Z,13.30
2023-05-08T06:04:09.520Z,13.40
2023-05-08T06:06:39.378Z,13.40
2023-05-08T06:09:07.105Z,13.50
2023-05-08T06:11:37.017Z,13.50
2023-05-08T06:14:06.512Z,13.60
2023-05-08T06:16:35.462Z,13.70
2023-05-08T06:19:02.317Z,13.70
2023-05-08T06:21:29.122Z,13.70
2023-05-08T06:23:56.216Z,13.70
2023-05-08T06:26:23.631Z,13.80
2023-05-08T06:28:50.555Z,13.80
2023-05-08T06:31:17.583Z,13.80
2023-05-08T06:33:44.547Z,13.90
2023-05-08T06:36:11.680Z,13.90
2023-05-08T06:38:38.461Z,14.00
2023-05-08T06:41:05.364Z,14.00
2023-05-08T06:43:32.338Z,14.00
2023-05-08T06:45:59.267Z,14.10
2023-05-08T06:48:29.103Z,14.10
2023-05-08T06:50:56.512Z,14.20
2023-05-08T06:53:23.520Z,14.20
2023-05-08T06:55:51.333Z,14.20
2023-05-08T06:58:18.182Z,14.30
2023-05-08T07:00:44.993Z,14.30
2023-05-08T07:03:11.878Z,14.40
2023-05-08T07:05:38.699Z,14.60
2023-05-08T07:08:05.662Z,14.70
2023-05-08T07:10:33.561Z,14.80
2023-05-08T07:13:00.508Z,14.90
2023-05-08T07:15:27.433Z,15.10
2023-05-08T07:17:54.571Z,15.10
2023-05-08T07:20:22.044Z,15.20
2023-05-08T07:22:49.038Z,15.30
2023-05-08T07:25:16.217Z,15.40
2023-05-08T07:27:43.609Z,15.50
2023-05-08T07:30:11.059Z,15.60
2023-05-08T07:32:39.393Z,15.60
2023-05-08T07:35:10.805Z,15.70
2023-05-08T07:37:41.392Z,15.80
2023-05-08T07:40:08.990Z,15.80
2023-05-08T07:42:40.704Z,15.90
2023-05-08T07:45:09.239Z,16.00
2023-05-08T07:47:36.226Z,16.10
2023-05-08T07:50:03.739Z,16.20
2023-05-08T07:52:30.774Z,16.30
2023-05-08T07:55:00.143Z,16.40
2023-05-08T07:57:26.987Z,16.60
2023-05-08T07:59:53.726Z,16.70
2023-05-08T08:02:21.644Z,16.80
2023-05-08T08:04:51.260Z,16.80
2023-05-08T08:07:18.211Z,16.80
2023-05-08T08:09:45.017Z,16.80
2023-05-08T08:12:12.130Z,16.80
2023-05-08T08:14:39.171Z,16.90
2023-05-08T08:17:06.113Z,16.90
2023-05-08T08:19:33.004Z,17.00
2023-05-08T08:22:02.836Z,17.00
2023-05-08T08:24:29.828Z,17.00
2023-05-08T08:26:56.638Z,16.90
2023-05-08T08:29:26.187Z,17.00
2023-05-08T08:31:52.980Z,17.10
2023-05-08T08:34:19.831Z,17.20
2023-05-08T08:36:46.554Z,17.20
2023-05-08T08:39:16.207Z,17.30
2023-05-08T08:41:43.050Z,17.30
2023-05-08T08:44:09.809Z,17.30
2023-05-08T08:46:44.082Z,17.40
2023-05-08T08:49:17.740Z,17.40
2023-05-08T08:51:55.732Z,17.50
2023-05-08T08:54:28.296Z,17.40
2023-05-08T08:56:57.094Z,17.60
2023-05-08T08:59:25.983Z,17.70
2023-05-08T09:01:56.950Z,17.70
2023-05-08T09:04:27.276Z,17.80
2023-05-08T09:06:54.948Z,17.80
2023-05-08T09:09:22.657Z,17.90
2023-05-08T09:11:51.706Z,18.00
2023-05-08T09:14:19.048Z,18.30
2023-05-08T09:16:45.802Z,18.70
2023-05-08T09:19:15.897Z,19.00
2023-05-08T09:21:43.195Z,19.20
2023-05-08T09:24:10.076Z,19.20
2023-05-08T09:26:41.458Z,19.10
2023-05-08T09:29:20.074Z,19.10
2023-05-08T09:31:49.065Z,19.10
2023-05-08T09:34:30.500Z,19.00
2023-05-08T09:37:17.526Z,18.90
2023-05-08T09:39:46.636Z,18.90
2023-05-08T09:42:14.207Z,19.10
2023-05-08T09:44:46.088Z,19.20
2023-05-08T09:47:14.975Z,19.40
2023-05-08T09:50:05.113Z,19.50
2023-05-08T09:52:35.687Z,19.60
2023-05-08T09:55:09.512Z,19.60
2023-05-08T09:57:39.835Z,19.70
2023-05-08T10:00:09.835Z,19.60
2023-05-08T10:02:41.811Z,19.60
2023-05-08T10:05:47.339Z,19.60
2023-05-08T10:08:21.916Z,19.60
2023-05-08T10:10:49.069Z,19.80
2023-05-08T10:13:15.999Z,20.20
2023-05-08T10:15:44.650Z,20.20
2023-05-08T10:18:14.622Z,20.20
2023-05-08T10:20:44.430Z,20.20
2023-05-08T10:23:17.346Z,20.20
2023-05-08T10:25:52.760Z,20.10
2023-05-08T10:28:31.992Z,20.10
2023-05-08T10:31:05.346Z,20.00
2023-05-08T10:33:34.777Z,19.90
2023-05-08T10:36:04.882Z,19.80
2023-05-08T10:38:33.400Z,19.80
2023-05-08T10:41:01.533Z,19.60
2023-05-08T10:43:31.468Z,19.60
2023-05-08T10:46:04.977Z,19.50
2023-05-08T10:48:36.629Z,19.50
2023-05-08T10:51:10.304Z,19.50
2023-05-08T10:53:51.391Z,19.60
2023-05-08T10:56:18.236Z,19.80
2023-05-08T10:58:45.010Z,19.90
2023-05-08T11:01:13.160Z,20.00
2023-05-08T11:03:45.726Z,20.10
2023-05-08T11:06:13.489Z,20.10
2023-05-08T11:08:51.960Z,19.90
2023-05-08T11:11:51.178Z,19.90
2023-05-08T11:14:19.628Z,19.90
2023-05-08T11:17:02.294Z,20.00
2023-05-08T11:19:29.709Z,20.00
2023-05-08T11:22:14.325Z,19.90
2023-05-08T11:24:48.739Z,19.80
2023-05-08T11:27:19.511Z,19.70
2023-05-08T11:30:20.906Z,19.70
2023-05-08T11:33:14.407Z,19.70
2023-05-08T11:35:47.439Z,19.80
2023-05-08T11:38:28.307Z,19.90
2023-05-08T11:40:58.545Z,20.20
2023-05-08T11:43:36.302Z,20.40
2023-05-08T11:46:05.778Z,20.60
2023-05-08T11:48:33.465Z,20.70
2023-05-08T11:51:01.134Z,20.70
2023-05-08T11:53:28.920Z,20.60
2023-05-08T11:56:14.806Z,20.70
2023-05-08T11:58:42.056Z,20.60
2023-05-08T12:01:08.988Z,20.70
2023-05-08T12:03:36.262Z,20.60
2023-05-08T12:06:04.943Z,20.60
2023-05-08T12:08:32.546Z,20.70
2023-05-08T12:11:00.025Z,20.90
2023-05-08T12:13:29.138Z,20.90
2023-05-08T12:16:03.597Z,20.90
2023-05-08T12:18:30.886Z,20.90
2023-05-08T12:21:01.704Z,20.90
2023-05-08T12:23:30.916Z,21.10
2023-05-08T12:26:02.346Z,21.60
2023-05-08T12:28:30.329Z,21.90
2023-05-08T12:30:57.874Z,22.20
2023-05-08T12:33:25.687Z,22.10
2023-05-08T12:35:52.833Z,22.30
2023-05-08T12:38:19.669Z,22.40
2023-05-08T12:40:50.100Z,22.60
2023-05-08T12:43:17.196Z,22.60
2023-05-08T12:45:44.256Z,22.70
2023-05-08T12:48:18.208Z,23.00
2023-05-08T12:50:49.024Z,23.10
2023-05-08T12:53:17.894Z,23.10
2023-05-08T12:56:11.187Z,23.00
2023-05-08T12:58:38.512Z,22.80
2023-05-08T13:01:12.989Z,22.60
2023-05-08T13:03:43.249Z,22.50
2023-05-08T13:06:21.405Z,22.30
2023-05-08T13:08:55.044Z,22.20
2023-05-08T13:11:33.135Z,22.20
2023-05-08T13:14:00.699Z,22.20
2023-05-08T13:16:27.755Z,22.10
2023-05-08T13:18:54.719Z,22.00
2023-05-08T13:21:21.584Z,21.90
2023-05-08T13:23:48.455Z,21.90
2023-05-08T13:26:15.444Z,21.80
2023-05-08T13:28:42.273Z,21.80
2023-05-08T13:31:09.203Z,22.10
2023-05-08T13:33:38.184Z,22.30
2023-05-08T13:36:05.278Z,22.60
2023-05-08T13:38:32.124Z,22.60
2023-05-08T13:41:19.928Z,22.40
2023-05-08T13:43:47.776Z,22.40
2023-05-08T13:46:14.755Z,22.30
2023-05-08T13:48:41.734Z,22.20
2023-05-08T13:51:08.576Z,22.20
2023-05-08T13:53:37.774Z,22.20
2023-05-08T13:56:04.884Z,22.10
2023-05-08T13:58:32.285Z,22.10
2023-05-08T14:01:07.493Z,22.00
2023-05-08T14:03:41.629Z,22.00
2023-05-08T14:06:08.637Z,21.90
2023-05-08T14:08:44.717Z,21.90
2023-05-08T14:11:12.872Z,21.80
2023-05-08T14:13:41.374Z,21.70
2023-05-08T14:16:10.447Z,21.50
2023-05-08T14:18:37.885Z,21.50
2023-05-08T14:21:04.834Z,21.40
2023-05-08T14:23:31.684Z,21.50
2023-05-08T14:25:58.461Z,21.60
2023-05-08T14:28:25.237Z,21.80
2023-05-08T14:30:52.089Z,21.90
2023-05-08T14:33:19.576Z,22.10
2023-05-08T14:35:48.485Z,22.00
2023-05-08T14:38:15.496Z,22.00
2023-05-08T14:40:42.305Z,22.00
2023-05-08T14:43:09.295Z,22.10
2023-05-08T14:45:36.249Z,22.20
2023-05-08T14:48:03.162Z,22.30
2023-05-08T14:50:30.483Z,22.30
2023-05-08T14:52:57.453Z,22.20
2023-05-08T14:55:24.969Z,22.10
2023-05-08T14:57:52.233Z,22.00
2023-05-08T15:00:20.775Z,21.90
2023-05-08T15:02:47.909Z,21.90
2023-05-08T15:05:20.179Z,21.90
2023-05-08T15:07:49.902Z,21.90
2023-05-08T15:10:16.951Z,21.80
2023-05-08T15:12:44.054Z,21.70
2023-05-08T15:15:11.489Z,21.60
2023-05-08T15:17:41.540Z,21.60
2023-05-08T15:20:11.258Z,21.50
2023-05-08T15:22:38.339Z,21.60
2023-05-08T15:25:06.296Z,21.50
2023-05-08T15:27:33.140Z,21.40
2023-05-08T15:30:00.000Z,21.30
2023-05-08T15:32:27.109Z,21.30
2023-05-08T15:34:54.158Z,21.40
2023-05-08T15:37:21.193Z,21.50
2023-05-08T15:39:49.786Z,21.60
2023-05-08T15:42:16.735Z,21.60
2023-05-08T15:44:54.455Z,21.60
2023-05-08T15:47:23.376Z,21.60
2023-05-08T15:49:51.114Z,21.50
2023-05-08T15:52:19.631Z,21.40
2023-05-08T15:54:47.253Z,21.40
2023-05-08T15:57:14.208Z,21.30
2023-05-08T15:59:41.225Z,21.20
2023-05-08T16:02:08.805Z,21.20
2023-05-08T16:04:36.301Z,21.20
2023-05-08T16:07:03.327Z,21.20
2023-05-08T16:09:30.334Z,21.10
2023-05-08T16:12:00.126Z,21.00
2023-05-08T16:14:27.165Z,21.00
2023-05-08T16:16:54.148Z,21.00
2023-05-08T16:19:21.026Z,21.00
2023-05-08T16:21:48.037Z,20.70
2023-05-08T16:24:14.936Z,20.60
2023-05-08T16:26:41.886Z,20.60
2023-05-08T16:29:08.737Z,20.50
2023-05-08T16:31:35.871Z,20.40
2023-05-08T16:34:02.867Z,20.30
2023-05-08T16:36:29.826Z,20.30
2023-05-08T16:38:56.632Z,20.30
2023-05-08T16:41:24.208Z,20.30
2023-05-08T16:43:51.726Z,20.20
2023-05-08T16:46:29.228Z,20.20
2023-05-08T16:48:57.076Z,20.20
2023-05-08T16:51:23.842Z,20.10
2023-05-08T16:53:50.905Z,20.20
2023-05-08T16:56:18.099Z,20.20
2023-05-08T16:58:45.086Z,20.30
2023-05-08T17:01:11.984Z,20.30
2023-05-08T17:03:39.025Z,20.40
2023-05-08T17:06:09.584Z,20.40
2023-05-08T17:08:36.387Z,20.50
2023-05-08T17:11:05.984Z,20.40
2023-05-08T17:13:32.984Z,20.40
2023-05-08T17:16:00.180Z,20.40
2023-05-08T17:18:27.103Z,20.40
2023-05-08T17:20:54.197Z,20.20
2023-05-08T17:23:21.154Z,20.20
2023-05-08T17:25:47.965Z,20.10
2023-05-08T17:28:15.019Z,20.10
2023-05-08T17:30:41.782Z,20.10
2023-05-08T17:33:08.897Z,20.00
2023-05-08T17:35:36.162Z,19.90
2023-05-08T17:38:03.180Z,19.80
2023-05-08T17:40:30.692Z,19.70
2023-05-08T17:43:00.111Z,19.60
2023-05-08T17:45:27.219Z,19.60
2023-05-08T17:47:54.183Z,19.50
2023-05-08T17:50:21.143Z,19.40
2023-05-08T17:52:48.079Z,19.30
2023-05-08T17:55:14.844Z,19.30
2023-05-08T17:57:41.637Z,19.20
2023-05-08T18:00:09.071Z,19.20
2023-05-08T18:02:36.411Z,19.20
2023-05-08T18:05:03.571Z,19.20
2023-05-08T18:07:30.534Z,19.20
2023-05-08T18:09:58.019Z,19.20
2023-05-08T18:12:24.982Z,19.10
2023-05-08T18:14:52.208Z,19.00
2023-05-08T18:17:19.507Z,18.90
2023-05-08T18:19:48.968Z,18.90
2023-05-08T18:22:15.828Z,18.80
2023-05-08T18:24:43.198Z,18.80
2023-05-08T18:27:37.804Z,18.70
2023-05-08T18:30:09.688Z,18.70
2023-05-08T18:32:53.314Z,18.60
2023-05-08T18:35:45.235Z,18.60
2023-05-08T18:38:12.293Z,18.50
2023-05-08T18:40:48.098Z,18.50
2023-05-08T18:43:41.784Z,18.40
2023-05-08T18:46:38.922Z,18.40
2023-05-08T18:49:06.279Z,18.40
2023-05-08T18:51:34.603Z,18.30
2023-05-08T18:54:01.678Z,18.10
2023-05-08T18:56:34.421Z,18.10
2023-05-08T18:59:51.118Z,18.10
2023-05-08T19:02:21.528Z,18.00
2023-05-08T19:08:24.720Z,17.90
2023-05-08T19:10:53.428Z,17.90
2023-05-08T19:16:13.609Z,17.90
2023-05-08T19:18:40.606Z,17.90
2023-05-08T19:21:07.776Z,17.80
2023-05-08T19:23:35.014Z,17.80
2023-05-08T19:26:01.967Z,17.70
2023-05-08T19:28:29.639Z,17.70
2023-05-08T19:30:57.046Z,17.70
2023-05-08T19:33:23.912Z,17.60
2023-05-08T19:35:50.818Z,17.60
2023-05-08T19:38:17.746Z,17.60
2023-05-08T19:40:56.331Z,17.60
2023-05-08T19:43:25.717Z,17.60
2023-05-08T19:45:52.994Z,17.50
2023-05-08T19:48:20.304Z,17.50
2023-05-08T19:50:47.428Z,17.40
2023-05-08T19:53:16.041Z,17.30
2023-05-08T19:55:42.942Z,17.30
2023-05-08T19:58:09.855Z,17.20
2023-05-08T20:00:36.914Z,17.20
2023-05-08T20:03:04.108Z,17.10
2023-05-08T20:05:32.065Z,17.10
2023-05-08T20:07:59.057Z,17.00
2023-05-08T20:10:26.130Z,17.00
2023-05-08T20:12:53.202Z,16.90
2023-05-08T20:15:20.556Z,16.90
2023-05-08T20:17:47.527Z,16.90
2023-05-08T20:20:14.910Z,16.90
2023-05-08T20:22:42.057Z,16.90
2023-05-08T20:25:09.028Z,16.80
2023-05-08T20:27:37.093Z,16.80
2023-05-08T20:30:05.091Z,16.70
2023-05-08T20:32:32.023Z,16.60
2023-05-08T20:34:59.028Z,16.60
2023-05-08T20:37:26.019Z,16.50
2023-05-08T20:39:53.212Z,16.50
2023-05-08T20:42:20.081Z,16.40
2023-05-08T20:44:46.933Z,16.30
2023-05-08T20:47:14.693Z,16.30
2023-05-08T20:49:41.463Z,16.30
2023-05-08T20:52:08.657Z,16.30
2023-05-08T20:54:35.720Z,16.30
2023-05-08T20:57:03.214Z,16.40
2023-05-08T20:59:30.206Z,16.40
2023-05-08T21:01:56.987Z,16.30
2023-05-08T21:04:23.847Z,16.30
2023-05-08T21:06:52.103Z,16.30
2023-05-08T21:09:19.274Z,16.30
2023-05-08T21:11:46.073Z,16.30
2023-05-08T21:14:13.106Z,16.30
2023-05-08T21:16:42.436Z,16.30
2023-05-08T21:19:11.359Z,16.30
2023-05-08T21:21:38.173Z,16.30
2023-05-08T21:24:05.413Z,16.40
2023-05-08T21:26:32.217Z,16.40
2023-05-08T21:29:00.966Z,16.40
2023-05-08T21:31:28.883Z,16.50
2023-05-08T21:33:55.797Z,16.40
2023-05-08T21:36:22.706Z,16.40
2023-05-08T21:38:49.580Z,16.40
2023-05-08T21:41:16.455Z,16.50
2023-05-08T21:43:43.242Z,16.50
2023-05-08T21:46:10.190Z,16.50
2023-05-08T21:48:37.206Z,16.50
2023-05-08T21:51:05.464Z,16.50
2023-05-08T21:53:32.490Z,16.40
2023-05-08T21:55:59.822Z,16.40
2023-05-08T21:58:26.647Z,16.40
2023-05-08T22:00:58.409Z,16.40
2023-05-08T22:03:25.799Z,16.30
2023-05-08T22:05:55.843Z,16.20
2023-05-08T22:08:22.731Z,16.20
2023-05-08T22:10:50.448Z,16.20
2023-05-08T22:13:17.408Z,16.30
2023-05-08T22:15:44.307Z,16.20
2023-05-08T22:18:11.204Z,16.20
2023-05-08T22:20:38.013Z,16.20
2023-05-08T22:23:04.998Z,16.20
2023-05-08T22:25:31.957Z,16.20
2023-05-08T22:27:58.758Z,16.20
2023-05-08T22:30:25.740Z,16.20
2023-05-08T22:32:57.353Z,16.20
2023-05-08T22:35:26.937Z,16.20
2023-05-08T22:37:54.707Z,16.10
2023-05-08T22:40:22.320Z,16.00
2023-05-08T22:42:51.688Z,16.10
2023-05-08T22:45:19.389Z,16.10
2023-05-08T22:47:46.263Z,16.10
2023-05-08T22:50:13.138Z,16.10
2023-05-08T22:52:42.959Z,15.90
2023-05-08T22:55:09.954Z,15.90
2023-05-08T22:57:36.843Z,15.80
2023-05-08T23:00:04.369Z,15.80
2023-05-08T23:02:35.263Z,15.80
2023-05-08T23:05:02.297Z,15.90
2023-05-08T23:07:29.688Z,15.90
2023-05-08T23:09:56.728Z,15.80
2023-05-08T23:12:23.737Z,15.90
2023-05-08T23:14:50.875Z,15.80
2023-05-08T23:17:17.854Z,15.80
2023-05-08T23:19:45.987Z,15.80
2023-05-08T23:22:13.240Z,15.80
2023-05-08T23:24:43.026Z,15.80
2023-05-08T23:27:09.989Z,15.80
2023-05-08T23:29:37.143Z,15.80
2023-05-08T23:32:04.062Z,15.80
2023-05-08T23:34:31.005Z,15.80
2023-05-08T23:36:57.957Z,15.70
2023-05-08T23:39:27.406Z,15.70
2023-05-08T23:41:54.603Z,15.70
2023-05-08T23:44:21.622Z,15.70
2023-05-08T23:46:49.649Z,15.70
2023-05-08T23:49:16.738Z,15.60
2023-05-08T23:51:43.968Z,15.50
2023-05-08T23:54:10.909Z,15.50
2023-05-08T23:56:37.706Z,15.50
2023-05-08T23:59:04.511Z,15.60
